sensor_id;sensor_type;location;lat;lon;timestamp;P1;durP1;ratioP1;P2;durP2;ratioP2
53339;SDS011;46212;50.258;19.062;2022-11-09T00:01:24;53.90;;;25.83;;
53339;SDS011;46212;50.258;19.062;2022-11-09T00:03:55;63.55;;;25.48;;
53339;SDS011;46212;50.258;19.062;2022-11-09T00:06:23;56.40;;;24.92;;
53339;SDS011;46212;50.258;19.062;2022-11-09T00:08:49;62.90;;;24.80;;
53339;SDS011;46212;50.258;19.062;2022-11-09T00:11:14;57.83;;;26.58;;
53339;SDS011;46212;50.258;19.062;2022-11-09T00:13:41;60.17;;;26.13;;
53339;SDS011;46212;50.258;19.062;2022-11-09T00:16:08;64.13;;;27.50;;
53339;SDS011;46212;50.258;19.062;2022-11-09T00:18:34;64.68;;;26.23;;
53339;SDS011;46212;50.258;19.062;2022-11-09T00:21:07;64.77;;;28.87;;
53339;SDS011;46212;50.258;19.062;2022-11-09T00:23:34;61.63;;;25.55;;
53339;SDS011;46212;50.258;19.062;2022-11-09T00:26:00;64.97;;;28.00;;
53339;SDS011;46212;50.258;19.062;2022-11-09T00:28:30;67.00;;;27.92;;
53339;SDS011;46212;50.258;19.062;2022-11-09T00:30:59;64.63;;;27.87;;
53339;SDS011;46212;50.258;19.062;2022-11-09T00:33:32;55.22;;;25.73;;
53339;SDS011;46212;50.258;19.062;2022-11-09T00:35:58;49.23;;;23.00;;
53339;SDS011;46212;50.258;19.062;2022-11-09T00:38:23;51.80;;;22.55;;
53339;SDS011;46212;50.258;19.062;2022-11-09T00:40:48;44.08;;;19.95;;
53339;SDS011;46212;50.258;19.062;2022-11-09T00:43:14;47.53;;;21.63;;
53339;SDS011;46212;50.258;19.062;2022-11-09T00:45:39;48.67;;;22.27;;
53339;SDS011;46212;50.258;19.062;2022-11-09T00:48:05;46.13;;;20.07;;
53339;SDS011;46212;50.258;19.062;2022-11-09T00:50:31;48.73;;;19.03;;
53339;SDS011;46212;50.258;19.062;2022-11-09T00:52:57;44.83;;;20.10;;
53339;SDS011;46212;50.258;19.062;2022-11-09T00:55:23;41.40;;;19.45;;
53339;SDS011;46212;50.258;19.062;2022-11-09T00:57:51;51.15;;;22.15;;
53339;SDS011;46212;50.258;19.062;2022-11-09T01:00:21;45.53;;;19.52;;
53339;SDS011;46212;50.258;19.062;2022-11-09T01:02:50;45.10;;;20.52;;
53339;SDS011;46212;50.258;19.062;2022-11-09T01:05:16;38.53;;;21.23;;
53339;SDS011;46212;50.258;19.062;2022-11-09T01:07:41;51.53;;;21.93;;
53339;SDS011;46212;50.258;19.062;2022-11-09T01:10:07;46.10;;;19.15;;
53339;SDS011;46212;50.258;19.062;2022-11-09T01:12:32;41.60;;;18.70;;
53339;SDS011;46212;50.258;19.062;2022-11-09T01:14:58;44.38;;;18.48;;
53339;SDS011;46212;50.258;19.062;2022-11-09T01:17:23;39.72;;;18.58;;
53339;SDS011;46212;50.258;19.062;2022-11-09T01:19:49;43.75;;;19.92;;
53339;SDS011;46212;50.258;19.062;2022-11-09T01:22:15;43.35;;;17.90;;
53339;SDS011;46212;50.258;19.062;2022-11-09T01:24:41;39.38;;;18.88;;
53339;SDS011;46212;50.258;19.062;2022-11-09T01:27:07;41.90;;;19.00;;
53339;SDS011;46212;50.258;19.062;2022-11-09T01:29:32;41.60;;;16.17;;
53339;SDS011;46212;50.258;19.062;2022-11-09T01:31:58;40.30;;;18.23;;
53339;SDS011;46212;50.258;19.062;2022-11-09T01:34:23;34.57;;;16.43;;
53339;SDS011;46212;50.258;19.062;2022-11-09T01:36:49;37.93;;;18.37;;
53339;SDS011;46212;50.258;19.062;2022-11-09T01:39:15;35.55;;;17.15;;
53339;SDS011;46212;50.258;19.062;2022-11-09T01:41:41;37.60;;;16.53;;
53339;SDS011;46212;50.258;19.062;2022-11-09T01:44:17;37.80;;;16.17;;
53339;SDS011;46212;50.258;19.062;2022-11-09T01:46:57;35.95;;;16.92;;
53339;SDS011;46212;50.258;19.062;2022-11-09T01:49:41;32.15;;;15.05;;
53339;SDS011;46212;50.258;19.062;2022-11-09T01:52:33;36.17;;;15.55;;
53339;SDS011;46212;50.258;19.062;2022-11-09T01:55:02;35.08;;;14.80;;
53339;SDS011;46212;50.258;19.062;2022-11-09T01:58:14;31.25;;;14.82;;
53339;SDS011;46212;50.258;19.062;2022-11-09T02:00:23;36.92;;;15.27;;
53339;SDS011;46212;50.258;19.062;2022-11-09T02:02:50;36.80;;;15.43;;
53339;SDS011;46212;50.258;19.062;2022-11-09T02:05:21;31.52;;;15.05;;
53339;SDS011;46212;50.258;19.062;2022-11-09T02:07:49;30.60;;;13.55;;
53339;SDS011;46212;50.258;19.062;2022-11-09T02:12:50;32.22;;;14.77;;
53339;SDS011;46212;50.258;19.062;2022-11-09T02:15:18;30.33;;;13.77;;
53339;SDS011;46212;50.258;19.062;2022-11-09T02:17:46;33.75;;;16.58;;
53339;SDS011;46212;50.258;19.062;2022-11-09T02:20:16;29.60;;;15.10;;
53339;SDS011;46212;50.258;19.062;2022-11-09T02:22:41;32.03;;;15.17;;
53339;SDS011;46212;50.258;19.062;2022-11-09T02:25:08;30.47;;;15.20;;
53339;SDS011;46212;50.258;19.062;2022-11-09T02:27:34;42.50;;;16.48;;
53339;SDS011;46212;50.258;19.062;2022-11-09T02:30:02;34.95;;;15.50;;
53339;SDS011;46212;50.258;19.062;2022-11-09T02:32:28;30.83;;;15.63;;
53339;SDS011;46212;50.258;19.062;2022-11-09T02:34:54;32.53;;;15.00;;
53339;SDS011;46212;50.258;19.062;2022-11-09T02:37:27;32.60;;;14.85;;
53339;SDS011;46212;50.258;19.062;2022-11-09T02:39:54;35.88;;;15.18;;
53339;SDS011;46212;50.258;19.062;2022-11-09T02:42:22;32.40;;;13.90;;
53339;SDS011;46212;50.258;19.062;2022-11-09T02:44:50;33.43;;;14.90;;
53339;SDS011;46212;50.258;19.062;2022-11-09T02:47:19;33.25;;;15.77;;
53339;SDS011;46212;50.258;19.062;2022-11-09T02:49:44;36.67;;;15.03;;
53339;SDS011;46212;50.258;19.062;2022-11-09T02:52:10;35.47;;;16.00;;
53339;SDS011;46212;50.258;19.062;2022-11-09T02:54:35;37.90;;;17.13;;
53339;SDS011;46212;50.258;19.062;2022-11-09T02:57:01;39.78;;;17.20;;
53339;SDS011;46212;50.258;19.062;2022-11-09T02:59:26;34.90;;;15.37;;
53339;SDS011;46212;50.258;19.062;2022-11-09T03:01:51;35.65;;;14.70;;
53339;SDS011;46212;50.258;19.062;2022-11-09T03:04:17;33.37;;;15.37;;
53339;SDS011;46212;50.258;19.062;2022-11-09T03:06:42;32.85;;;14.77;;
53339;SDS011;46212;50.258;19.062;2022-11-09T03:09:08;33.03;;;15.70;;
53339;SDS011;46212;50.258;19.062;2022-11-09T03:11:35;35.33;;;15.25;;
53339;SDS011;46212;50.258;19.062;2022-11-09T03:14:01;38.00;;;14.87;;
53339;SDS011;46212;50.258;19.062;2022-11-09T03:16:27;31.85;;;14.60;;
53339;SDS011;46212;50.258;19.062;2022-11-09T03:18:53;29.27;;;13.80;;
53339;SDS011;46212;50.258;19.062;2022-11-09T03:21:19;30.30;;;14.73;;
53339;SDS011;46212;50.258;19.062;2022-11-09T03:23:46;34.65;;;14.43;;
53339;SDS011;46212;50.258;19.062;2022-11-09T03:26:12;31.83;;;15.70;;
53339;SDS011;46212;50.258;19.062;2022-11-09T03:28:37;32.47;;;14.70;;
53339;SDS011;46212;50.258;19.062;2022-11-09T03:31:03;32.93;;;16.77;;
53339;SDS011;46212;50.258;19.062;2022-11-09T03:33:28;35.70;;;14.10;;
53339;SDS011;46212;50.258;19.062;2022-11-09T03:35:54;31.13;;;15.30;;
53339;SDS011;46212;50.258;19.062;2022-11-09T03:38:19;36.57;;;13.70;;
53339;SDS011;46212;50.258;19.062;2022-11-09T03:40:44;31.90;;;15.17;;
53339;SDS011;46212;50.258;19.062;2022-11-09T03:43:10;29.07;;;13.50;;
53339;SDS011;46212;50.258;19.062;2022-11-09T03:45:35;34.67;;;15.05;;
53339;SDS011;46212;50.258;19.062;2022-11-09T03:48:01;29.77;;;12.73;;
53339;SDS011;46212;50.258;19.062;2022-11-09T03:50:27;33.00;;;13.90;;
53339;SDS011;46212;50.258;19.062;2022-11-09T03:52:55;34.28;;;14.30;;
53339;SDS011;46212;50.258;19.062;2022-11-09T03:57:46;29.70;;;13.82;;
53339;SDS011;46212;50.258;19.062;2022-11-09T04:00:13;28.77;;;13.83;;
53339;SDS011;46212;50.258;19.062;2022-11-09T04:02:40;29.77;;;15.00;;
53339;SDS011;46212;50.258;19.062;2022-11-09T04:05:06;36.80;;;14.90;;
53339;SDS011;46212;50.258;19.062;2022-11-09T04:07:32;27.55;;;13.85;;
53339;SDS011;46212;50.258;19.062;2022-11-09T04:09:57;32.05;;;13.32;;
53339;SDS011;46212;50.258;19.062;2022-11-09T04:12:23;29.57;;;14.33;;
53339;SDS011;46212;50.258;19.062;2022-11-09T04:14:48;30.08;;;14.80;;
53339;SDS011;46212;50.258;19.062;2022-11-09T04:17:14;28.43;;;13.07;;
53339;SDS011;46212;50.258;19.062;2022-11-09T04:19:39;30.15;;;13.88;;
53339;SDS011;46212;50.258;19.062;2022-11-09T04:22:05;34.77;;;14.83;;
53339;SDS011;46212;50.258;19.062;2022-11-09T04:24:30;27.45;;;12.93;;
53339;SDS011;46212;50.258;19.062;2022-11-09T04:26:56;32.73;;;16.40;;
53339;SDS011;46212;50.258;19.062;2022-11-09T04:29:21;30.50;;;13.05;;
53339;SDS011;46212;50.258;19.062;2022-11-09T04:31:47;30.05;;;12.63;;
53339;SDS011;46212;50.258;19.062;2022-11-09T04:34:13;29.27;;;12.82;;
53339;SDS011;46212;50.258;19.062;2022-11-09T04:36:39;32.33;;;14.00;;
53339;SDS011;46212;50.258;19.062;2022-11-09T04:39:04;24.15;;;12.52;;
53339;SDS011;46212;50.258;19.062;2022-11-09T04:41:30;29.40;;;15.13;;
53339;SDS011;46212;50.258;19.062;2022-11-09T04:43:55;31.93;;;13.17;;
53339;SDS011;46212;50.258;19.062;2022-11-09T04:46:21;30.40;;;12.30;;
53339;SDS011;46212;50.258;19.062;2022-11-09T04:48:46;29.85;;;12.25;;
53339;SDS011;46212;50.258;19.062;2022-11-09T04:51:11;31.35;;;13.27;;
53339;SDS011;46212;50.258;19.062;2022-11-09T04:53:37;28.43;;;12.10;;
53339;SDS011;46212;50.258;19.062;2022-11-09T04:56:03;29.43;;;12.73;;
53339;SDS011;46212;50.258;19.062;2022-11-09T04:58:29;31.15;;;14.63;;
53339;SDS011;46212;50.258;19.062;2022-11-09T05:01:00;26.00;;;12.13;;
53339;SDS011;46212;50.258;19.062;2022-11-09T05:03:36;26.55;;;14.07;;
53339;SDS011;46212;50.258;19.062;2022-11-09T05:06:01;28.23;;;12.97;;
53339;SDS011;46212;50.258;19.062;2022-11-09T05:08:50;31.65;;;14.23;;
53339;SDS011;46212;50.258;19.062;2022-11-09T05:11:19;27.80;;;13.35;;
53339;SDS011;46212;50.258;19.062;2022-11-09T05:13:44;29.43;;;13.73;;
53339;SDS011;46212;50.258;19.062;2022-11-09T05:16:10;32.00;;;13.47;;
53339;SDS011;46212;50.258;19.062;2022-11-09T05:18:35;31.50;;;14.37;;
53339;SDS011;46212;50.258;19.062;2022-11-09T05:21:01;34.70;;;14.77;;
53339;SDS011;46212;50.258;19.062;2022-11-09T05:23:27;29.35;;;14.65;;
53339;SDS011;46212;50.258;19.062;2022-11-09T05:26:11;33.42;;;15.73;;
53339;SDS011;46212;50.258;19.062;2022-11-09T05:28:36;36.10;;;16.50;;
53339;SDS011;46212;50.258;19.062;2022-11-09T05:31:01;30.42;;;14.82;;
53339;SDS011;46212;50.258;19.062;2022-11-09T05:33:27;32.88;;;15.57;;
53339;SDS011;46212;50.258;19.062;2022-11-09T05:35:53;29.58;;;13.88;;
53339;SDS011;46212;50.258;19.062;2022-11-09T05:38:19;36.40;;;15.32;;
53339;SDS011;46212;50.258;19.062;2022-11-09T05:40:46;30.83;;;13.70;;
53339;SDS011;46212;50.258;19.062;2022-11-09T05:43:15;29.95;;;13.88;;
53339;SDS011;46212;50.258;19.062;2022-11-09T05:45:41;34.43;;;14.67;;
53339;SDS011;46212;50.258;19.062;2022-11-09T05:48:07;29.83;;;13.85;;
53339;SDS011;46212;50.258;19.062;2022-11-09T05:50:33;32.45;;;17.42;;
53339;SDS011;46212;50.258;19.062;2022-11-09T05:52:58;31.47;;;14.57;;
53339;SDS011;46212;50.258;19.062;2022-11-09T05:55:24;34.83;;;16.40;;
53339;SDS011;46212;50.258;19.062;2022-11-09T05:57:50;34.97;;;16.20;;
53339;SDS011;46212;50.258;19.062;2022-11-09T06:00:15;30.07;;;14.10;;
53339;SDS011;46212;50.258;19.062;2022-11-09T06:02:41;35.30;;;15.57;;
53339;SDS011;46212;50.258;19.062;2022-11-09T06:05:06;34.73;;;15.40;;
53339;SDS011;46212;50.258;19.062;2022-11-09T06:07:32;31.60;;;14.13;;
53339;SDS011;46212;50.258;19.062;2022-11-09T06:09:57;32.80;;;14.30;;
53339;SDS011;46212;50.258;19.062;2022-11-09T06:12:23;35.67;;;15.35;;
53339;SDS011;46212;50.258;19.062;2022-11-09T06:14:48;35.60;;;15.77;;
53339;SDS011;46212;50.258;19.062;2022-11-09T06:17:13;33.38;;;15.60;;
53339;SDS011;46212;50.258;19.062;2022-11-09T06:19:39;37.27;;;14.83;;
53339;SDS011;46212;50.258;19.062;2022-11-09T06:22:04;37.03;;;17.38;;
53339;SDS011;46212;50.258;19.062;2022-11-09T06:24:29;35.63;;;15.83;;
53339;SDS011;46212;50.258;19.062;2022-11-09T06:26:55;39.28;;;14.57;;
53339;SDS011;46212;50.258;19.062;2022-11-09T06:29:21;37.63;;;16.73;;
53339;SDS011;46212;50.258;19.062;2022-11-09T06:31:46;30.67;;;14.03;;
53339;SDS011;46212;50.258;19.062;2022-11-09T06:34:13;34.90;;;15.45;;
53339;SDS011;46212;50.258;19.062;2022-11-09T06:36:39;35.90;;;15.53;;
53339;SDS011;46212;50.258;19.062;2022-11-09T06:39:04;35.55;;;15.60;;
53339;SDS011;46212;50.258;19.062;2022-11-09T06:41:30;37.88;;;15.48;;
53339;SDS011;46212;50.258;19.062;2022-11-09T06:43:56;39.27;;;15.47;;
53339;SDS011;46212;50.258;19.062;2022-11-09T06:46:21;33.65;;;15.00;;
53339;SDS011;46212;50.258;19.062;2022-11-09T06:48:46;34.03;;;15.60;;
53339;SDS011;46212;50.258;19.062;2022-11-09T06:51:12;37.07;;;15.50;;
53339;SDS011;46212;50.258;19.062;2022-11-09T06:53:37;35.70;;;16.77;;
53339;SDS011;46212;50.258;19.062;2022-11-09T06:56:04;34.75;;;16.77;;
53339;SDS011;46212;50.258;19.062;2022-11-09T06:58:30;34.23;;;14.53;;
53339;SDS011;46212;50.258;19.062;2022-11-09T07:00:56;37.40;;;15.83;;
53339;SDS011;46212;50.258;19.062;2022-11-09T07:03:22;34.00;;;14.05;;
53339;SDS011;46212;50.258;19.062;2022-11-09T07:05:48;33.77;;;16.17;;
53339;SDS011;46212;50.258;19.062;2022-11-09T07:08:15;32.42;;;15.18;;
53339;SDS011;46212;50.258;19.062;2022-11-09T07:10:42;33.22;;;14.82;;
53339;SDS011;46212;50.258;19.062;2022-11-09T07:13:08;40.10;;;16.73;;
53339;SDS011;46212;50.258;19.062;2022-11-09T07:15:34;35.42;;;15.68;;
53339;SDS011;46212;50.258;19.062;2022-11-09T07:20:27;32.05;;;16.00;;
53339;SDS011;46212;50.258;19.062;2022-11-09T07:22:52;37.27;;;17.03;;
53339;SDS011;46212;50.258;19.062;2022-11-09T07:25:18;35.27;;;15.87;;
53339;SDS011;46212;50.258;19.062;2022-11-09T07:27:44;31.43;;;15.73;;
53339;SDS011;46212;50.258;19.062;2022-11-09T07:30:10;37.80;;;15.13;;
53339;SDS011;46212;50.258;19.062;2022-11-09T07:32:36;38.57;;;18.10;;
53339;SDS011;46212;50.258;19.062;2022-11-09T07:35:03;34.35;;;16.40;;
53339;SDS011;46212;50.258;19.062;2022-11-09T07:37:30;37.53;;;16.38;;
53339;SDS011;46212;50.258;19.062;2022-11-09T07:39:56;35.97;;;15.88;;
53339;SDS011;46212;50.258;19.062;2022-11-09T07:42:21;38.37;;;17.43;;
53339;SDS011;46212;50.258;19.062;2022-11-09T07:44:48;37.58;;;17.35;;
53339;SDS011;46212;50.258;19.062;2022-11-09T07:47:13;34.77;;;16.47;;
53339;SDS011;46212;50.258;19.062;2022-11-09T07:49:40;38.97;;;17.38;;
53339;SDS011;46212;50.258;19.062;2022-11-09T07:52:06;36.87;;;15.57;;
53339;SDS011;46212;50.258;19.062;2022-11-09T07:54:31;35.00;;;16.30;;
53339;SDS011;46212;50.258;19.062;2022-11-09T07:56:56;36.43;;;16.53;;
53339;SDS011;46212;50.258;19.062;2022-11-09T07:59:22;36.07;;;16.03;;
53339;SDS011;46212;50.258;19.062;2022-11-09T08:01:47;33.87;;;16.63;;
53339;SDS011;46212;50.258;19.062;2022-11-09T08:04:12;35.03;;;16.63;;
53339;SDS011;46212;50.258;19.062;2022-11-09T08:06:38;31.50;;;15.80;;
53339;SDS011;46212;50.258;19.062;2022-11-09T08:09:04;33.17;;;16.80;;
53339;SDS011;46212;50.258;19.062;2022-11-09T08:11:30;36.53;;;17.63;;
53339;SDS011;46212;50.258;19.062;2022-11-09T08:13:55;35.67;;;18.70;;
53339;SDS011;46212;50.258;19.062;2022-11-09T08:16:21;39.73;;;17.80;;
53339;SDS011;46212;50.258;19.062;2022-11-09T08:18:48;40.40;;;19.70;;
53339;SDS011;46212;50.258;19.062;2022-11-09T08:21:14;33.83;;;16.88;;
53339;SDS011;46212;50.258;19.062;2022-11-09T08:23:39;33.03;;;16.27;;
53339;SDS011;46212;50.258;19.062;2022-11-09T08:26:05;33.33;;;14.73;;
53339;SDS011;46212;50.258;19.062;2022-11-09T08:28:31;34.57;;;16.30;;
53339;SDS011;46212;50.258;19.062;2022-11-09T08:31:01;39.88;;;18.05;;
53339;SDS011;46212;50.258;19.062;2022-11-09T08:33:32;33.33;;;16.02;;
53339;SDS011;46212;50.258;19.062;2022-11-09T08:35:59;36.15;;;17.13;;
53339;SDS011;46212;50.258;19.062;2022-11-09T08:38:25;33.60;;;15.37;;
53339;SDS011;46212;50.258;19.062;2022-11-09T08:40:55;28.30;;;13.97;;
53339;SDS011;46212;50.258;19.062;2022-11-09T08:43:21;32.95;;;16.30;;
53339;SDS011;46212;50.258;19.062;2022-11-09T08:45:46;29.60;;;16.00;;
53339;SDS011;46212;50.258;19.062;2022-11-09T08:48:12;28.67;;;14.47;;
53339;SDS011;46212;50.258;19.062;2022-11-09T08:50:37;29.73;;;12.40;;
53339;SDS011;46212;50.258;19.062;2022-11-09T08:53:03;33.37;;;15.27;;
53339;SDS011;46212;50.258;19.062;2022-11-09T08:55:29;30.60;;;13.05;;
53339;SDS011;46212;50.258;19.062;2022-11-09T08:57:55;33.53;;;13.30;;
53339;SDS011;46212;50.258;19.062;2022-11-09T09:00:22;30.88;;;12.68;;
53339;SDS011;46212;50.258;19.062;2022-11-09T09:02:47;26.63;;;11.60;;
53339;SDS011;46212;50.258;19.062;2022-11-09T09:05:13;32.10;;;14.90;;
53339;SDS011;46212;50.258;19.062;2022-11-09T09:07:40;33.58;;;14.13;;
53339;SDS011;46212;50.258;19.062;2022-11-09T09:10:05;23.80;;;12.23;;
53339;SDS011;46212;50.258;19.062;2022-11-09T09:12:31;30.47;;;14.70;;
53339;SDS011;46212;50.258;19.062;2022-11-09T09:14:56;30.20;;;14.03;;
53339;SDS011;46212;50.258;19.062;2022-11-09T09:17:22;21.80;;;10.57;;
53339;SDS011;46212;50.258;19.062;2022-11-09T09:19:48;27.17;;;12.50;;
53339;SDS011;46212;50.258;19.062;2022-11-09T09:22:13;27.87;;;13.23;;
53339;SDS011;46212;50.258;19.062;2022-11-09T09:24:38;31.20;;;12.87;;
53339;SDS011;46212;50.258;19.062;2022-11-09T09:27:04;27.50;;;13.37;;
53339;SDS011;46212;50.258;19.062;2022-11-09T09:29:29;29.13;;;12.87;;
53339;SDS011;46212;50.258;19.062;2022-11-09T09:31:54;29.40;;;13.17;;
53339;SDS011;46212;50.258;19.062;2022-11-09T09:34:20;25.70;;;12.10;;
53339;SDS011;46212;50.258;19.062;2022-11-09T09:36:45;28.27;;;13.93;;
53339;SDS011;46212;50.258;19.062;2022-11-09T09:39:10;28.17;;;13.10;;
53339;SDS011;46212;50.258;19.062;2022-11-09T09:49:42;20.73;;;11.38;;
53339;SDS011;46212;50.258;19.062;2022-11-09T09:54:56;29.92;;;14.35;;
53339;SDS011;46212;50.258;19.062;2022-11-09T09:57:27;23.33;;;12.45;;
53339;SDS011;46212;50.258;19.062;2022-11-09T09:59:56;28.00;;;12.82;;
53339;SDS011;46212;50.258;19.062;2022-11-09T10:02:26;29.77;;;13.25;;
53339;SDS011;46212;50.258;19.062;2022-11-09T10:04:54;28.83;;;13.55;;
53339;SDS011;46212;50.258;19.062;2022-11-09T10:13:27;23.88;;;10.85;;
53339;SDS011;46212;50.258;19.062;2022-11-09T10:19:06;23.30;;;11.77;;
53339;SDS011;46212;50.258;19.062;2022-11-09T10:24:13;25.90;;;11.20;;
53339;SDS011;46212;50.258;19.062;2022-11-09T10:26:56;21.42;;;9.32;;
53339;SDS011;46212;50.258;19.062;2022-11-09T10:29:39;27.30;;;11.45;;
53339;SDS011;46212;50.258;19.062;2022-11-09T10:34:43;18.55;;;9.95;;
53339;SDS011;46212;50.258;19.062;2022-11-09T10:37:16;18.92;;;10.02;;
53339;SDS011;46212;50.258;19.062;2022-11-09T10:39:46;20.50;;;9.88;;
53339;SDS011;46212;50.258;19.062;2022-11-09T10:42:15;18.33;;;9.85;;
53339;SDS011;46212;50.258;19.062;2022-11-09T10:44:40;21.40;;;10.10;;
53339;SDS011;46212;50.258;19.062;2022-11-09T10:47:10;21.60;;;9.60;;
53339;SDS011;46212;50.258;19.062;2022-11-09T10:49:38;23.08;;;10.18;;
53339;SDS011;46212;50.258;19.062;2022-11-09T10:52:05;20.98;;;8.85;;
53339;SDS011;46212;50.258;19.062;2022-11-09T10:54:50;19.65;;;8.45;;
53339;SDS011;46212;50.258;19.062;2022-11-09T10:57:17;17.13;;;9.50;;
53339;SDS011;46212;50.258;19.062;2022-11-09T11:07:31;18.40;;;7.93;;
53339;SDS011;46212;50.258;19.062;2022-11-09T11:12:39;14.65;;;7.93;;
53339;SDS011;46212;50.258;19.062;2022-11-09T11:15:21;18.93;;;8.87;;
53339;SDS011;46212;50.258;19.062;2022-11-09T11:18:02;18.13;;;9.05;;
53339;SDS011;46212;50.258;19.062;2022-11-09T11:20:33;13.75;;;8.40;;
53339;SDS011;46212;50.258;19.062;2022-11-09T11:23:09;17.45;;;8.02;;
53339;SDS011;46212;50.258;19.062;2022-11-09T11:26:00;18.10;;;9.57;;
53339;SDS011;46212;50.258;19.062;2022-11-09T11:28:37;16.85;;;9.20;;
53339;SDS011;46212;50.258;19.062;2022-11-09T11:31:39;17.30;;;8.48;;
53339;SDS011;46212;50.258;19.062;2022-11-09T11:33:57;21.58;;;10.38;;
53339;SDS011;46212;50.258;19.062;2022-11-09T11:36:29;16.90;;;9.37;;
53339;SDS011;46212;50.258;19.062;2022-11-09T11:47:22;22.13;;;9.68;;
53339;SDS011;46212;50.258;19.062;2022-11-09T12:04:11;18.42;;;10.07;;
53339;SDS011;46212;50.258;19.062;2022-11-09T12:06:57;24.48;;;10.10;;
53339;SDS011;46212;50.258;19.062;2022-11-09T12:09:36;17.45;;;9.38;;
53339;SDS011;46212;50.258;19.062;2022-11-09T12:12:18;23.35;;;9.65;;
53339;SDS011;46212;50.258;19.062;2022-11-09T12:15:01;17.73;;;8.68;;
53339;SDS011;46212;50.258;19.062;2022-11-09T12:39:46;16.08;;;8.85;;
53339;SDS011;46212;50.258;19.062;2022-11-09T12:42:26;17.13;;;8.85;;
53339;SDS011;46212;50.258;19.062;2022-11-09T12:47:34;15.43;;;7.65;;
53339;SDS011;46212;50.258;19.062;2022-11-09T12:50:04;19.88;;;8.60;;
53339;SDS011;46212;50.258;19.062;2022-11-09T12:52:30;18.05;;;8.63;;
53339;SDS011;46212;50.258;19.062;2022-11-09T12:54:57;15.43;;;9.05;;
53339;SDS011;46212;50.258;19.062;2022-11-09T12:57:28;17.73;;;8.43;;
53339;SDS011;46212;50.258;19.062;2022-11-09T12:59:55;16.15;;;9.00;;
53339;SDS011;46212;50.258;19.062;2022-11-09T13:02:32;19.40;;;9.77;;
53339;SDS011;46212;50.258;19.062;2022-11-09T13:05:26;17.35;;;8.13;;
53339;SDS011;46212;50.258;19.062;2022-11-09T13:07:55;16.02;;;8.23;;
53339;SDS011;46212;50.258;19.062;2022-11-09T13:10:30;17.08;;;8.85;;
53339;SDS011;46212;50.258;19.062;2022-11-09T13:13:02;17.88;;;9.15;;
53339;SDS011;46212;50.258;19.062;2022-11-09T13:15:30;17.20;;;8.77;;
53339;SDS011;46212;50.258;19.062;2022-11-09T13:18:02;17.55;;;8.95;;
53339;SDS011;46212;50.258;19.062;2022-11-09T13:23:03;19.58;;;10.38;;
53339;SDS011;46212;50.258;19.062;2022-11-09T13:25:48;17.75;;;9.23;;
53339;SDS011;46212;50.258;19.062;2022-11-09T13:30:51;20.90;;;10.60;;
53339;SDS011;46212;50.258;19.062;2022-11-09T13:33:18;18.50;;;10.13;;
53339;SDS011;46212;50.258;19.062;2022-11-09T13:38:22;18.50;;;8.57;;
53339;SDS011;46212;50.258;19.062;2022-11-09T13:40:53;17.98;;;9.55;;
53339;SDS011;46212;50.258;19.062;2022-11-09T13:43:27;17.63;;;9.50;;
53339;SDS011;46212;50.258;19.062;2022-11-09T13:45:58;16.55;;;8.77;;
53339;SDS011;46212;50.258;19.062;2022-11-09T13:50:57;17.58;;;9.75;;
53339;SDS011;46212;50.258;19.062;2022-11-09T13:53:29;17.67;;;9.63;;
53339;SDS011;46212;50.258;19.062;2022-11-09T13:58:58;14.45;;;8.15;;
53339;SDS011;46212;50.258;19.062;2022-11-09T14:04:35;21.92;;;10.07;;
53339;SDS011;46212;50.258;19.062;2022-11-09T14:07:11;23.85;;;11.60;;
53339;SDS011;46212;50.258;19.062;2022-11-09T14:15:18;21.17;;;10.85;;
53339;SDS011;46212;50.258;19.062;2022-11-09T14:17:48;20.30;;;9.32;;
53339;SDS011;46212;50.258;19.062;2022-11-09T14:23:19;36.80;;;17.08;;
53339;SDS011;46212;50.258;19.062;2022-11-09T14:25:48;27.13;;;13.10;;
53339;SDS011;46212;50.258;19.062;2022-11-09T14:28:26;30.37;;;15.73;;
53339;SDS011;46212;50.258;19.062;2022-11-09T14:30:53;24.48;;;13.25;;
53339;SDS011;46212;50.258;19.062;2022-11-09T14:33:24;27.58;;;14.70;;
53339;SDS011;46212;50.258;19.062;2022-11-09T14:35:51;25.10;;;12.95;;
53339;SDS011;46212;50.258;19.062;2022-11-09T14:40:48;27.63;;;13.07;;
53339;SDS011;46212;50.258;19.062;2022-11-09T14:46:13;24.92;;;11.82;;
53339;SDS011;46212;50.258;19.062;2022-11-09T14:48:40;28.70;;;14.35;;
53339;SDS011;46212;50.258;19.062;2022-11-09T14:51:15;24.50;;;11.35;;
53339;SDS011;46212;50.258;19.062;2022-11-09T14:53:41;27.60;;;13.43;;
53339;SDS011;46212;50.258;19.062;2022-11-09T14:58:39;24.67;;;12.25;;
53339;SDS011;46212;50.258;19.062;2022-11-09T15:01:28;28.30;;;13.35;;
53339;SDS011;46212;50.258;19.062;2022-11-09T15:04:09;21.48;;;12.88;;
53339;SDS011;46212;50.258;19.062;2022-11-09T15:09:34;24.55;;;12.02;;
53339;SDS011;46212;50.258;19.062;2022-11-09T15:12:12;23.10;;;12.73;;
53339;SDS011;46212;50.258;19.062;2022-11-09T15:14:47;22.63;;;11.87;;
53339;SDS011;46212;50.258;19.062;2022-11-09T15:17:33;27.13;;;12.40;;
53339;SDS011;46212;50.258;19.062;2022-11-09T15:20:22;27.23;;;13.05;;
53339;SDS011;46212;50.258;19.062;2022-11-09T15:22:54;27.38;;;13.90;;
53339;SDS011;46212;50.258;19.062;2022-11-09T15:33:00;27.13;;;14.27;;
53339;SDS011;46212;50.258;19.062;2022-11-09T15:35:47;31.33;;;16.00;;
53339;SDS011;46212;50.258;19.062;2022-11-09T15:40:54;35.33;;;17.73;;
53339;SDS011;46212;50.258;19.062;2022-11-09T15:43:19;28.17;;;15.27;;
53339;SDS011;46212;50.258;19.062;2022-11-09T15:45:45;36.23;;;15.43;;
53339;SDS011;46212;50.258;19.062;2022-11-09T15:48:10;31.03;;;14.70;;
53339;SDS011;46212;50.258;19.062;2022-11-09T15:50:36;32.30;;;15.93;;
53339;SDS011;46212;50.258;19.062;2022-11-09T15:53:02;27.90;;;15.98;;
53339;SDS011;46212;50.258;19.062;2022-11-09T15:55:28;27.10;;;14.60;;
53339;SDS011;46212;50.258;19.062;2022-11-09T15:57:53;27.33;;;13.10;;
53339;SDS011;46212;50.258;19.062;2022-11-09T16:00:19;32.67;;;16.17;;
53339;SDS011;46212;50.258;19.062;2022-11-09T16:02:45;38.95;;;15.15;;
53339;SDS011;46212;50.258;19.062;2022-11-09T16:05:11;32.40;;;15.37;;
53339;SDS011;46212;50.258;19.062;2022-11-09T16:07:45;34.35;;;17.48;;
53339;SDS011;46212;50.258;19.062;2022-11-09T16:10:12;29.00;;;16.05;;
53339;SDS011;46212;50.258;19.062;2022-11-09T16:12:38;33.73;;;16.60;;
53339;SDS011;46212;50.258;19.062;2022-11-09T16:15:03;25.80;;;14.67;;
53339;SDS011;46212;50.258;19.062;2022-11-09T16:17:29;31.47;;;15.90;;
53339;SDS011;46212;50.258;19.062;2022-11-09T16:19:54;33.23;;;16.00;;
53339;SDS011;46212;50.258;19.062;2022-11-09T16:22:19;31.70;;;14.97;;
53339;SDS011;46212;50.258;19.062;2022-11-09T16:24:45;30.67;;;15.20;;
53339;SDS011;46212;50.258;19.062;2022-11-09T16:27:11;30.70;;;15.07;;
53339;SDS011;46212;50.258;19.062;2022-11-09T16:29:36;29.83;;;16.90;;
53339;SDS011;46212;50.258;19.062;2022-11-09T16:32:01;31.90;;;16.07;;
53339;SDS011;46212;50.258;19.062;2022-11-09T16:34:27;34.37;;;17.17;;